Anna, OH

7:25 PM EDT on April 19, 2015 (GMT -0400)
Country - Front Yard | | Change Station
CLOSE
Current Station
Personal Weather Station
Location: Sidney, OH
Elevation: 1020 ft
Nearby Weather Stations

Elev 1020 ft 40.37 °N, 84.17 °W | Updated 9 minutes ago

Rain
Rain
57.2 °F
Feels Like 57.2 °F
N
13.5
Wind Variable Wind from SE

Today
High -- | Low -- °F
--% Chance of Precip.
Yesterday
High -- | Low -- °F
Precip. -- in
6:52 AM 8:19 PM
New Moon, 2% visible
Pressure 29.52 in
Visibility 2.0 miles
Clouds Overcast 1200 ft
Dew Point 57 °F
Humidity 99%
Rainfall 0.67 in
Snow Depth Not available.
UV 0 out of 12
Pollen 5.80 out of 12
Air Quality Not available.
Flu Activity Regional
METAR KEDJ 192250Z AUTO 12021G28KT 2SM OVC012 13/13 A2952 RMK AO1 P0004

More Conditions Fewer Conditions

Pressure 29.52 in
Visibility 2.0 miles
Clouds Overcast 1200 ft
Dew Point 57 °F
Humidity 99%
Rainfall 0.67 in
Snow Depth Not available.
UV 0 out of 12
Pollen 5.80 out of 12
Air Quality Not available.
Flu Activity Regional
METAR KEDJ 192250Z AUTO 12021G28KT 2SM OVC012 13/13 A2952 RMK AO1 P0004

More Conditions Fewer Conditions

10-Day Weather Forecast

Almanac

Astronomy

Apr. 19, 2015 Rise Set
Actual Time
Civil Twilight
Nautical Twilight
Astronomical Twilight
Moon
Length of Visible Light
Length of Day
Tomorrow will be .
, % of the Moon is Illuminated

Today's Extremes

State Highs State Lows

Community

WunderPhotos

Upload Photos

1,815,030 photos uploaded!

WunderBlogs® & News

Nearby

Air Quality

  Air Quality AQ Index Pollutant
Not available.

Snow Depth

Station Depth Elevation

Earthquake Activity

City Distance Mag. Time & Date
Minimum magnitude displayed is 2.5.

Coastal Water Temperatures

Place Temperature

Stations

Nearby Weather Stations

Station Location Temp. Windchill Dew Point Humidity Wind Precip. Elev Updated Type